Time;durP1;ratioP1;P1;durP2;ratioP2;P2;SDS_P1;SDS_P2;PMS_P1;PMS_P2;Temp;Humidity;BMP_temperature;BMP_pressure;BME280_temperature;BME280_humidity;BME280_pressure;Samples;Min_cycle;Max_cycle;Signal;HPM_P1;HPM_P2
2022/04/18 00:00:43;;;;;;;4.15;2.10;;;;;;;10.82;41.40;101046.53;4035034;29;20495;-58
2022/04/18 00:02:46;;;;;;;6.88;3.22;;;;;;;10.78;41.53;101039.50;4035126;29;20513;-58
2022/04/18 00:04:50;;;;;;;5.13;2.20;;;;;;;10.71;42.34;101035.00;4028044;29;20041;-57
2022/04/18 00:06:53;;;;;;;5.45;2.42;;;;;;;10.69;43.04;101034.09;4030831;29;20094;-57
2022/04/18 00:08:56;;;;;;;6.55;2.38;;;;;;;10.60;44.02;101039.06;4027334;29;20072;-58
2022/04/18 00:10:59;;;;;;;5.07;2.38;;;;;;;10.55;45.43;101040.69;4031840;29;20049;-58
2022/04/18 00:13:01;;;;;;;4.65;2.47;;;;;;;10.42;46.66;101040.38;4036284;29;20049;-58
2022/04/18 00:15:06;;;;;;;3.97;2.33;;;;;;;10.37;46.25;101043.75;4033770;29;20045;-58
2022/04/18 00:17:10;;;;;;;6.97;2.38;;;;;;;10.29;46.82;101039.19;4033443;29;20041;-58
2022/04/18 00:19:13;;;;;;;7.53;2.53;;;;;;;10.23;47.33;101044.22;4035049;29;20041;-58
2022/04/18 00:21:16;;;;;;;3.50;1.83;;;;;;;10.22;46.88;101042.47;4034861;29;20041;-58
2022/04/18 00:23:19;;;;;;;6.82;2.60;;;;;;;10.20;47.42;101038.06;4034905;29;20037;-58
2022/04/18 00:25:22;;;;;;;4.55;1.90;;;;;;;10.26;48.06;101036.50;4036365;29;20128;-58
2022/04/18 00:27:25;;;;;;;5.85;2.00;;;;;;;10.18;48.71;101029.34;4033223;29;20064;-58
2022/04/18 00:29:28;;;;;;;6.10;2.30;;;;;;;10.17;47.89;101032.81;4035951;29;20045;-58
2022/04/18 00:31:31;;;;;;;3.53;2.00;;;;;;;10.15;47.15;101037.97;4035113;29;20115;-58
2022/04/18 00:33:35;;;;;;;4.10;2.10;;;;;;;10.14;45.92;101029.28;4038844;29;20048;-58
2022/04/18 00:35:38;;;;;;;4.90;2.17;;;;;;;10.12;45.11;101032.69;4036059;29;20566;-58
2022/04/18 00:37:41;;;;;;;5.38;2.17;;;;;;;10.10;44.14;101032.66;4024020;29;20049;-58
2022/04/18 00:39:44;;;;;;;4.80;2.22;;;;;;;10.05;44.27;101023.00;4038587;29;20041;-58
2022/04/18 00:41:47;;;;;;;5.50;1.85;;;;;;;10.04;44.30;101018.63;4024254;29;20514;-58
2022/04/18 00:43:51;;;;;;;4.32;2.33;;;;;;;10.07;44.01;101022.16;4024419;29;20037;-58
2022/04/18 00:45:54;;;;;;;3.22;2.05;;;;;;;10.05;44.16;101023.00;4024435;29;20047;-58
2022/04/18 00:47:57;;;;;;;3.83;2.28;;;;;;;10.05;43.79;101016.06;4038228;29;20064;-59
2022/04/18 00:50:02;;;;;;;4.22;2.20;;;;;;;10.07;43.17;101009.19;4024291;29;20057;-58
2022/04/18 00:52:06;;;;;;;7.95;2.53;;;;;;;10.06;42.15;101003.94;4015224;29;20046;-58
2022/04/18 00:54:11;;;;;;;5.47;2.28;;;;;;;10.11;42.57;101011.00;4026651;29;20053;-58
2022/04/18 00:56:17;;;;;;;5.30;2.08;;;;;;;10.16;43.14;101000.72;4024320;29;20045;-58
2022/04/18 00:58:20;;;;;;;3.78;2.35;;;;;;;10.17;42.30;100997.31;4016533;29;20614;-58
2022/04/18 01:00:23;;;;;;;4.88;2.45;;;;;;;10.22;42.34;101000.00;4023502;29;20033;-58
2022/04/18 01:02:26;;;;;;;5.10;2.53;;;;;;;10.19;43.29;100995.63;4022697;29;20061;-58
2022/04/18 01:04:49;;;;;;;6.45;2.13;;;;;;;10.17;42.11;100993.84;4023234;29;20083;-58
2022/04/18 01:06:53;;;;;;;5.28;2.40;;;;;;;10.21;41.61;100985.28;4038015;29;20516;-58
2022/04/18 01:08:57;;;;;;;7.40;2.35;;;;;;;10.22;41.75;100985.31;4013653;29;20133;-58
2022/04/18 01:11:00;;;;;;;7.28;3.47;;;;;;;10.20;41.21;100978.31;4026330;29;20064;-58
2022/04/18 01:13:21;;;;;;;5.47;2.35;;;;;;;10.18;41.30;100975.69;4039137;29;20061;-58
2022/04/18 01:15:30;;;;;;;4.15;2.17;;;;;;;10.17;42.15;100975.66;4022523;29;20045;-58
2022/04/18 01:18:05;;;;;;;4.32;2.55;;;;;;;10.12;42.07;100981.59;4007667;29;20065;-58
2022/04/18 01:20:44;;;;;;;4.88;2.33;;;;;;;10.16;41.71;100973.88;4032783;29;20104;-58
2022/04/18 01:22:58;;;;;;;4.85;2.45;;;;;;;10.10;41.43;100970.31;4035262;29;20077;-58
2022/04/18 01:30:07;;;;;;;7.15;3.17;;;;;;;10.02;41.78;100969.25;4032342;29;20045;-58
2022/04/18 01:32:10;;;;;;;6.75;2.80;;;;;;;10.04;41.43;100964.06;4014759;29;20061;-59
2022/04/18 01:34:13;;;;;;;8.65;3.00;;;;;;;10.07;41.56;100961.56;4031621;29;20515;-58
2022/04/18 01:36:17;;;;;;;5.80;2.63;;;;;;;10.05;42.16;100960.66;4035194;29;20495;-58
2022/04/18 01:38:20;;;;;;;8.75;3.00;;;;;;;10.03;41.46;100963.22;4032314;29;20089;-58
2022/04/18 01:40:24;;;;;;;7.03;2.75;;;;;;;10.05;41.08;100958.91;4035161;29;20066;-58
2022/04/18 01:42:27;;;;;;;5.80;2.63;;;;;;;10.05;40.71;100956.31;4028553;29;20037;-58
2022/04/18 01:44:29;;;;;;;6.63;2.60;;;;;;;10.07;41.06;100969.34;4023337;29;20141;-58
2022/04/18 01:46:32;;;;;;;5.35;3.03;;;;;;;10.03;41.57;100958.00;4022106;29;20420;-58
2022/04/18 01:48:35;;;;;;;3.88;2.10;;;;;;;10.01;40.70;100964.88;4022193;29;20048;-58
2022/04/18 01:50:39;;;;;;;8.35;2.90;;;;;;;9.97;40.65;100957.84;4033601;29;20049;-58
2022/04/18 01:52:44;;;;;;;5.40;2.58;;;;;;;9.95;41.08;100964.72;4047939;29;20124;-58
2022/04/18 01:54:47;;;;;;;4.43;2.53;;;;;;;9.92;40.99;100956.88;4022314;29;20055;-58
2022/04/18 01:56:52;;;;;;;5.13;2.58;;;;;;;9.95;41.36;100950.00;4037325;29;20045;-58
2022/04/18 01:58:55;;;;;;;6.38;2.65;;;;;;;9.95;41.74;100949.16;4027836;29;20049;-58
2022/04/18 02:00:59;;;;;;;5.15;2.60;;;;;;;9.93;42.05;100956.03;4030549;29;20081;-58
2022/04/18 02:03:02;;;;;;;6.82;2.65;;;;;;;9.88;43.03;100952.44;4022165;29;20507;-58
2022/04/18 02:05:07;;;;;;;3.75;2.47;;;;;;;9.85;44.15;100949.75;4037507;29;20510;-58
2022/04/18 02:07:12;;;;;;;7.10;2.30;;;;;;;9.79;43.95;100953.94;4021702;29;20515;-58
2022/04/18 02:09:23;;;;;;;6.63;2.55;;;;;;;9.78;43.34;100949.63;4022232;29;20049;-58
2022/04/18 02:11:26;;;;;;;6.05;2.70;;;;;;;9.73;43.60;100951.19;4037562;29;20488;-58
2022/04/18 02:13:30;;;;;;;;;;;;;;;9.54;44.79;100948.97;4022455;29;20090;-58
2022/04/18 02:15:36;;;;;;;8.80;2.60;;;;;;;9.58;44.27;100949.09;4022110;29;19928;-58
2022/04/18 02:17:40;;;;;;;6.70;2.35;;;;;;;9.61;43.44;100941.38;4031789;29;20526;-58
2022/04/18 02:19:44;;;;;;;5.90;2.97;;;;;;;9.63;43.46;100936.22;4032258;29;20049;-58
2022/04/18 02:21:47;;;;;;;7.03;2.80;;;;;;;9.66;42.91;100943.22;4023318;29;20045;-58
2022/04/18 02:23:50;;;;;;;6.97;2.47;;;;;;;9.63;42.77;100949.19;4021959;29;20061;-58
2022/04/18 02:25:55;;;;;;;6.07;2.70;;;;;;;9.63;43.04;100938.81;4037257;29;20056;-59
2022/04/18 02:27:58;;;;;;;6.32;2.58;;;;;;;9.52;43.35;100946.34;4021581;29;20538;-58
2022/04/18 02:30:01;;;;;;;4.75;2.00;;;;;;;9.48;43.91;100946.22;4037198;29;20141;-58
2022/04/18 02:34:25;;;;;;;6.63;2.83;;;;;;;9.38;46.07;100937.31;4023083;29;20046;-58
2022/04/18 02:36:30;;;;;;;3.85;2.38;;;;;;;9.33;46.41;100939.78;4037158;29;20523;-58
2022/04/18 02:38:33;;;;;;;5.32;2.60;;;;;;;9.33;46.34;100939.78;4021660;29;20523;-58
2022/04/18 02:40:36;;;;;;;6.95;2.95;;;;;;;9.29;46.94;100940.53;4047662;29;20060;-58
2022/04/18 02:42:43;;;;;;;6.07;2.20;;;;;;;9.26;46.96;100936.13;4033228;29;20037;-58
2022/04/18 02:44:48;;;;;;;4.88;2.42;;;;;;;9.21;46.68;100932.56;4032079;29;20748;-58
2022/04/18 02:46:55;;;;;;;4.15;2.47;;;;;;;9.19;46.74;100938.53;4036785;29;20523;-58
2022/04/18 02:48:59;;;;;;;7.30;2.75;;;;;;;9.17;47.02;100922.03;4021779;29;20492;-58
2022/04/18 02:51:02;;;;;;;5.57;2.85;;;;;;;9.18;47.66;100929.84;4021912;29;20122;-58
2022/04/18 02:53:07;;;;;;;6.55;2.70;;;;;;;9.20;47.97;100919.50;4021780;29;20045;-59
2022/04/18 02:55:30;;;;;;;4.53;2.60;;;;;;;9.17;48.46;100920.31;4023335;29;20061;-59
2022/04/18 02:57:34;;;;;;;4.45;2.70;;;;;;;9.17;48.27;100929.81;4034353;29;20509;-59
2022/04/18 02:59:39;;;;;;;4.13;2.10;;;;;;;9.14;48.48;100921.94;4024647;29;20049;-59
2022/04/18 03:01:42;;;;;;;5.30;2.50;;;;;;;9.05;49.00;100922.56;4050267;29;20443;-59
2022/04/18 03:03:45;;;;;;;6.32;2.30;;;;;;;9.00;48.88;100922.44;4050251;29;20523;-58
2022/04/18 03:05:48;;;;;;;5.13;2.38;;;;;;;8.96;49.05;100918.00;4030126;29;20576;-58
2022/04/18 03:07:52;;;;;;;5.82;2.58;;;;;;;8.93;49.22;100920.50;4049887;29;20123;-58
2022/04/18 03:09:56;;;;;;;4.90;2.45;;;;;;;8.88;49.22;100917.78;4021820;29;20045;-58
2022/04/18 03:11:59;;;;;;;4.05;2.13;;;;;;;8.82;48.47;100914.13;4044781;29;20135;-58
2022/04/18 03:14:02;;;;;;;6.53;2.55;;;;;;;8.78;48.63;100920.97;4025592;29;20495;-58
2022/04/18 03:16:19;;;;;;;5.65;2.70;;;;;;;8.65;48.61;100919.72;4039757;29;20499;-58
2022/04/18 03:18:22;;;;;;;5.75;2.72;;;;;;;8.59;48.70;100914.34;4039492;29;20037;-58
2022/04/18 03:20:25;;;;;;;5.70;2.47;;;;;;;8.61;48.83;100917.84;4039748;29;20360;-58
2022/04/18 03:22:30;;;;;;;6.03;2.65;;;;;;;8.64;48.64;100915.34;4024280;29;20053;-58
2022/04/18 03:24:38;;;;;;;4.90;2.70;;;;;;;8.66;48.50;100910.22;4039678;29;20044;-58
2022/04/18 03:26:47;;;;;;;8.10;2.70;;;;;;;8.67;48.91;100905.09;4019396;29;20575;-57
2022/04/18 03:28:55;;;;;;;5.75;2.33;;;;;;;8.68;49.04;100903.38;4044283;29;20491;-58
2022/04/18 03:30:59;;;;;;;5.13;2.55;;;;;;;8.69;49.59;100900.84;4024256;29;20503;-58
2022/04/18 03:33:03;;;;;;;4.88;2.47;;;;;;;8.65;49.81;100893.78;4039548;29;20376;-58
2022/04/18 03:35:07;;;;;;;4.72;2.47;;;;;;;8.60;49.84;100899.69;4025347;29;20063;-58
2022/04/18 03:41:51;;;;;;;2.63;2.13;;;;;;;8.42;50.27;100902.56;4042192;29;20536;-57
2022/04/18 03:43:54;;;;;;;4.40;2.17;;;;;;;8.23;50.21;100904.59;4025002;29;20520;-57
2022/04/18 03:45:57;;;;;;;3.88;2.40;;;;;;;8.12;49.71;100905.97;4040194;29;20297;-57
2022/04/18 03:48:01;;;;;;;5.82;2.40;;;;;;;8.16;50.24;100902.66;4024502;29;20507;-57
2022/04/18 03:50:07;;;;;;;;;;;;;;;8.03;50.57;100910.03;4045980;29;20142;-57
2022/04/18 03:52:14;;;;;;;6.13;3.00;;;;;;;8.13;50.51;100907.72;4033047;29;20310;-57
2022/04/18 03:54:17;;;;;;;5.38;2.67;;;;;;;8.22;50.71;100902.88;4039300;29;20063;-57
2022/04/18 03:56:20;;;;;;;8.50;2.78;;;;;;;8.28;49.64;100902.16;4023703;29;20519;-58
2022/04/18 03:58:51;;;;;;;5.07;3.10;;;;;;;8.32;49.69;100898.81;4040555;29;20086;-57
2022/04/18 04:00:54;;;;;;;5.70;2.83;;;;;;;8.36;49.96;100901.53;4036449;29;20045;-58
2022/04/18 04:02:57;;;;;;;5.38;2.70;;;;;;;8.34;49.56;100904.94;4033844;29;20464;-58
2022/04/18 04:05:10;;;;;;;5.45;2.83;;;;;;;8.18;50.35;100906.19;4016411;29;20113;-57
2022/04/18 04:07:14;;;;;;;6.72;2.72;;;;;;;7.96;50.74;100905.50;4012518;29;20374;-57
2022/04/18 04:09:18;;;;;;;7.20;3.30;;;;;;;7.73;50.53;100903.88;4035286;29;20128;-58
2022/04/18 04:11:21;;;;;;;3.58;2.40;;;;;;;7.61;50.93;100905.22;4027091;29;20106;-58
2022/04/18 04:13:25;;;;;;;7.80;3.65;;;;;;;7.72;51.22;100899.53;4023553;29;20392;-57
2022/04/18 04:15:35;;;;;;;4.97;2.90;;;;;;;7.84;51.44;100897.31;4038968;29;20045;-58
2022/04/18 04:17:43;;;;;;;5.63;3.10;;;;;;;7.89;50.78;100897.50;4054298;29;20112;-57
2022/04/18 04:19:57;;;;;;;6.38;2.92;;;;;;;7.88;50.76;100896.59;4036827;29;20081;-57
2022/04/18 04:22:08;;;;;;;4.68;2.60;;;;;;;7.97;51.08;100904.69;4037903;29;20486;-58
2022/04/18 04:24:14;;;;;;;6.82;2.88;;;;;;;7.94;51.23;100895.91;4041013;29;20092;-58
2022/04/18 04:26:19;;;;;;;6.03;3.05;;;;;;;7.84;51.53;100890.47;4033572;29;20068;-57
2022/04/18 04:28:26;;;;;;;6.00;3.05;;;;;;;7.82;51.64;100891.22;4033310;29;20124;-57
2022/04/18 04:30:29;;;;;;;4.43;2.33;;;;;;;7.71;52.19;100898.66;4049087;29;20044;-57
2022/04/18 04:32:37;;;;;;;4.35;2.40;;;;;;;7.58;52.69;100891.28;4033621;29;20097;-57
2022/04/18 04:34:40;;;;;;;4.85;2.53;;;;;;;7.53;52.35;100892.84;4036060;29;20416;-57
2022/04/18 04:37:00;;;;;;;6.55;3.20;;;;;;;7.58;52.50;100892.19;4033144;29;20067;-57
2022/04/18 04:39:04;;;;;;;4.95;2.70;;;;;;;7.71;52.71;100892.59;4020438;29;20085;-56
2022/04/18 04:41:12;;;;;;;4.90;2.83;;;;;;;7.78;52.10;100897.13;4011955;29;20101;-57
2022/04/18 04:43:27;;;;;;;5.90;3.15;;;;;;;7.80;52.77;100896.34;4023084;29;20057;-57
2022/04/18 04:45:32;;;;;;;5.63;3.00;;;;;;;7.75;51.86;100899.63;4038492;29;20100;-57
2022/04/18 04:47:59;;;;;;;6.65;2.88;;;;;;;7.33;52.84;100904.28;4027464;29;20049;-57
2022/04/18 04:50:03;;;;;;;5.45;3.20;;;;;;;7.30;52.80;100905.88;4020310;29;20073;-57
2022/04/18 04:52:15;;;;;;;8.45;3.70;;;;;;;7.27;52.47;100908.34;4026681;29;20045;-57
2022/04/18 04:54:21;;;;;;;6.90;2.95;;;;;;;7.39;51.59;100906.22;4023083;29;20489;-57
2022/04/18 04:56:25;;;;;;;4.07;2.70;;;;;;;7.47;52.62;100904.75;4038125;29;20041;-57
2022/04/18 04:58:28;;;;;;;9.05;3.55;;;;;;;7.60;52.01;100902.59;4022778;29;20053;-57
2022/04/18 05:00:51;;;;;;;9.65;3.72;;;;;;;7.66;51.75;100897.59;4034156;29;20056;-57
2022/04/18 05:03:14;;;;;;;5.47;3.10;;;;;;;7.71;51.60;100897.75;4017894;29;20057;-57
2022/04/18 05:05:18;;;;;;;6.22;3.65;;;;;;;7.73;52.14;100896.13;4035689;29;20049;-57
2022/04/18 05:07:21;;;;;;;5.05;3.17;;;;;;;7.76;52.55;100911.75;4010180;29;20046;-57
2022/04/18 05:09:47;;;;;;;7.50;3.20;;;;;;;7.68;52.16;100909.78;4007683;29;20528;-57
2022/04/18 05:11:50;;;;;;;4.85;2.75;;;;;;;7.61;52.25;100910.41;4033113;29;20135;-58
2022/04/18 05:13:53;;;;;;;6.95;3.20;;;;;;;7.67;52.29;100902.84;4030200;29;20041;-58
2022/04/18 05:16:05;;;;;;;6.05;3.30;;;;;;;7.71;52.47;100897.75;4012733;29;20050;-57
2022/04/18 05:18:22;;;;;;;9.15;3.78;;;;;;;7.73;52.45;100909.06;4029156;29;20041;-57
2022/04/18 05:20:25;;;;;;;9.57;3.75;;;;;;;7.88;52.62;100906.09;4006508;29;20045;-57
2022/04/18 05:22:31;;;;;;;6.45;3.25;;;;;;;7.88;53.08;100901.78;4022707;29;20049;-58
2022/04/18 05:24:34;;;;;;;5.57;3.13;;;;;;;7.94;53.02;100904.56;4037927;29;20037;-57
2022/04/18 05:26:40;;;;;;;6.72;3.28;;;;;;;8.00;52.75;100902.19;4037713;29;20041;-57
2022/04/18 05:28:43;;;;;;;6.07;3.13;;;;;;;8.00;53.18;100909.06;4022615;29;20045;-58
2022/04/18 05:30:46;;;;;;;6.30;3.38;;;;;;;8.06;53.04;100898.00;4037940;29;20053;-58
2022/04/18 05:32:49;;;;;;;6.22;2.80;;;;;;;8.12;52.30;100901.69;4022530;29;20052;-58
2022/04/18 05:34:52;;;;;;;6.07;3.22;;;;;;;8.20;51.80;100901.91;4048003;29;20044;-58
2022/04/18 05:37:02;;;;;;;5.60;2.90;;;;;;;8.21;51.83;100901.09;4022145;29;20049;-58
2022/04/18 05:39:31;;;;;;;8.55;3.70;;;;;;;8.12;51.50;100906.88;4031062;29;20053;-57
2022/04/18 05:41:34;;;;;;;4.97;3.17;;;;;;;8.17;51.62;100899.22;4008622;29;20080;-58
2022/04/18 05:43:38;;;;;;;5.68;3.10;;;;;;;8.28;52.10;100903.03;4022340;29;20056;-58
2022/04/18 05:45:44;;;;;;;6.65;3.17;;;;;;;8.35;52.17;100905.00;4037764;29;20049;-58
2022/04/18 05:47:49;;;;;;;8.60;3.03;;;;;;;8.44;51.24;100898.31;4006913;29;20149;-58
2022/04/18 05:49:53;;;;;;;9.32;3.10;;;;;;;8.50;51.71;100895.97;4032422;29;20073;-58
2022/04/18 05:51:57;;;;;;;9.82;2.90;;;;;;;8.60;51.00;100889.31;4035033;29;20076;-58
2022/04/18 05:54:01;;;;;;;7.78;3.25;;;;;;;8.72;50.56;100903.50;4050466;29;20048;-58
2022/04/18 05:56:13;;;;;;;8.80;3.97;;;;;;;8.74;50.76;100901.81;4022847;29;20045;-58
2022/04/18 05:58:22;;;;;;;7.68;3.42;;;;;;;8.79;49.98;100899.41;4021192;29;20051;-58
2022/04/18 06:00:28;;;;;;;7.95;3.92;;;;;;;8.83;50.05;100900.34;4035532;29;20079;-58
2022/04/18 06:02:33;;;;;;;7.15;4.10;;;;;;;8.79;50.44;100901.09;4020252;29;20132;-58
2022/04/18 06:04:45;;;;;;;7.55;3.45;;;;;;;8.71;50.40;100903.47;4035477;29;20037;-58
2022/04/18 06:07:09;;;;;;;6.90;3.58;;;;;;;8.74;50.34;100904.41;4013049;29;20094;-58
2022/04/18 06:09:11;;;;;;;7.65;3.90;;;;;;;8.90;50.35;100900.56;4039670;29;20113;-59
2022/04/18 06:11:14;;;;;;;9.60;3.63;;;;;;;9.01;50.16;100899.97;4032327;29;20081;-59
2022/04/18 06:13:43;;;;;;;6.53;3.60;;;;;;;9.17;48.82;100899.56;4031495;29;20074;-58
2022/04/18 06:15:52;;;;;;;5.70;3.45;;;;;;;9.29;50.00;100899.03;4019403;29;20089;-58
2022/04/18 06:17:57;;;;;;;6.88;3.53;;;;;;;9.34;50.25;100907.78;4024783;29;20084;-58
2022/04/18 06:20:01;;;;;;;7.72;3.28;;;;;;;9.40;49.73;100907.97;4034943;29;20773;-58
2022/04/18 06:22:04;;;;;;;7.05;3.78;;;;;;;9.48;48.21;100905.56;4037491;29;20041;-58
2022/04/18 06:24:07;;;;;;;7.68;3.83;;;;;;;9.53;48.31;100903.94;4020861;29;20048;-58
2022/04/18 06:26:33;;;;;;;13.48;4.68;;;;;;;9.65;49.10;100907.72;4020031;29;20068;-58
2022/04/18 06:28:39;;;;;;;6.35;3.33;;;;;;;9.71;49.64;100905.25;4035378;29;20077;-58
2022/04/18 06:30:42;;;;;;;5.88;3.97;;;;;;;9.73;48.81;100912.25;4037825;29;20192;-58
2022/04/18 06:33:12;;;;;;;6.75;3.15;;;;;;;9.72;48.26;100909.63;4026722;29;20128;-58
2022/04/18 06:35:15;;;;;;;10.40;4.55;;;;;;;9.74;47.69;100914.03;4038391;29;20136;-58
2022/04/18 06:37:18;;;;;;;6.30;3.42;;;;;;;9.84;47.31;100914.22;4022600;29;20057;-58
2022/04/18 06:39:34;;;;;;;7.35;4.13;;;;;;;9.91;47.58;100916.13;4038358;29;20123;-58
2022/04/18 06:41:48;;;;;;;8.98;3.83;;;;;;;9.95;47.38;100908.44;4038387;29;20085;-58
2022/04/18 06:43:56;;;;;;;6.72;3.58;;;;;;;9.95;46.72;100912.78;4054032;29;20048;-59
2022/04/18 06:46:03;;;;;;;7.32;4.05;;;;;;;10.11;45.63;100904.50;4024877;29;20053;-59
2022/04/18 06:48:08;;;;;;;6.25;3.35;;;;;;;10.18;46.33;100907.22;4025520;29;20140;-58
2022/04/18 06:50:22;;;;;;;6.35;3.40;;;;;;;10.14;46.61;100912.38;4040232;29;20131;-58
2022/04/18 06:52:37;;;;;;;7.60;3.92;;;;;;;10.13;46.27;100897.63;4026071;29;20070;-58
2022/04/18 06:55:07;;;;;;;5.77;3.50;;;;;;;10.21;46.52;100903.00;4031495;29;20064;-56
2022/04/18 06:57:11;;;;;;;7.68;3.58;;;;;;;10.38;47.03;100907.72;4050446;29;20533;-58
2022/04/18 06:59:29;;;;;;;10.45;4.03;;;;;;;10.35;45.96;100897.25;4037601;29;20037;-59
2022/04/18 07:01:32;;;;;;;6.72;4.20;;;;;;;10.34;45.86;100903.28;4034957;29;20052;-59
2022/04/18 07:03:36;;;;;;;7.13;3.67;;;;;;;10.40;44.93;100899.13;4034966;29;20456;-59
2022/04/18 07:05:41;;;;;;;6.78;3.35;;;;;;;10.61;44.49;100895.22;4037380;29;20045;-58
2022/04/18 07:07:45;;;;;;;6.13;3.42;;;;;;;10.69;45.35;100892.78;4019114;29;20172;-59
2022/04/18 07:09:48;;;;;;;6.07;3.10;;;;;;;10.81;45.15;100899.13;4036453;29;20141;-59
2022/04/18 07:11:53;;;;;;;7.05;3.55;;;;;;;10.87;45.23;100900.09;4007243;29;20054;-59
2022/04/18 07:13:59;;;;;;;7.47;3.70;;;;;;;10.87;44.21;100887.09;4038011;29;20136;-57
2022/04/18 07:16:02;;;;;;;9.32;4.00;;;;;;;10.87;43.52;100893.16;4007952;29;20074;-60
2022/04/18 07:18:06;;;;;;;7.32;3.05;;;;;;;10.98;44.06;100902.06;4037467;29;20060;-57
2022/04/18 07:20:10;;;;;;;5.53;3.05;;;;;;;11.11;44.43;100894.47;4037644;29;20424;-57
2022/04/18 07:22:16;;;;;;;7.25;3.95;;;;;;;11.23;43.69;100897.34;4037747;29;20053;-57
2022/04/18 07:24:19;;;;;;;;;;;;;;;11.18;45.23;100898.97;4037233;29;20052;-57
2022/04/18 07:26:25;;;;;;;6.90;4.18;;;;;;;11.31;44.36;100892.25;4022225;29;19924;-57
2022/04/18 07:28:28;;;;;;;6.68;3.55;;;;;;;11.38;43.39;100893.25;4037471;29;20140;-57
2022/04/18 07:30:31;;;;;;;7.80;3.75;;;;;;;11.42;43.53;100895.94;4037671;29;20090;-58
2022/04/18 07:32:39;;;;;;;7.35;3.50;;;;;;;11.44;42.43;100888.16;4037018;29;20037;-58
2022/04/18 07:34:47;;;;;;;7.72;3.15;;;;;;;11.54;43.01;100887.47;4037052;29;20045;-57
2022/04/18 07:37:02;;;;;;;6.55;3.08;;;;;;;11.67;43.05;100893.75;4034080;29;20057;-58
2022/04/18 07:39:06;;;;;;;9.48;4.00;;;;;;;11.74;42.49;100893.00;4049771;29;20527;-57
2022/04/18 07:41:14;;;;;;;5.95;3.67;;;;;;;11.79;42.22;100898.28;4028729;29;20045;-57
2022/04/18 07:43:20;;;;;;;7.38;3.63;;;;;;;11.79;41.81;100891.34;4030057;29;20132;-57
2022/04/18 07:45:23;;;;;;;6.40;3.83;;;;;;;11.83;41.51;100894.88;4030526;29;20405;-57
2022/04/18 07:47:26;;;;;;;6.97;4.13;;;;;;;11.87;41.07;100892.34;4036662;29;20037;-58
2022/04/18 07:49:29;;;;;;;6.57;3.22;;;;;;;11.93;40.56;100895.88;4034335;29;20062;-57
2022/04/18 07:51:38;;;;;;;;;;;;;;;11.84;39.41;100896.63;4037120;29;20100;-58
2022/04/18 07:53:50;;;;;;;7.15;3.83;;;;;;;11.89;40.60;100894.97;4009193;29;19924;-57
2022/04/18 07:55:54;;;;;;;6.18;3.45;;;;;;;12.02;40.30;100893.47;4037019;29;20045;-57
2022/04/18 07:57:57;;;;;;;;;;;;;;;11.90;39.29;100895.84;4052760;29;20045;-57
2022/04/18 08:00:00;;;;;;;5.80;3.35;;;;;;;12.15;38.91;100897.13;4037246;29;19923;-57
2022/04/18 08:02:08;;;;;;;6.00;3.60;;;;;;;12.33;39.72;100886.97;4021815;29;20050;-58
2022/04/18 08:04:39;;;;;;;6.85;4.07;;;;;;;12.59;37.42;100889.06;4037220;29;20053;-58
2022/04/18 08:06:46;;;;;;;5.85;3.65;;;;;;;12.58;38.19;100885.56;4036015;29;20055;-57
2022/04/18 08:08:53;;;;;;;5.70;3.42;;;;;;;12.73;37.53;100882.28;4037104;29;20055;-57
2022/04/18 08:10:59;;;;;;;7.13;3.22;;;;;;;12.97;36.19;100890.38;4022848;29;20069;-57
2022/04/18 08:13:04;;;;;;;5.55;3.35;;;;;;;13.10;35.38;100887.91;4021796;29;20061;-57
2022/04/18 08:15:13;;;;;;;7.00;4.00;;;;;;;13.03;35.91;100885.22;4030426;29;20072;-58
2022/04/18 08:17:16;;;;;;;5.13;3.22;;;;;;;13.14;36.45;100887.94;4021162;29;20054;-58
2022/04/18 08:19:22;;;;;;;6.88;3.92;;;;;;;13.17;36.68;100891.47;4036335;29;20505;-58
2022/04/18 08:21:25;;;;;;;4.47;2.60;;;;;;;13.21;36.62;100888.00;4014933;29;20136;-58
2022/04/18 08:23:28;;;;;;;6.47;3.70;;;;;;;13.29;36.57;100882.88;4021584;29;20045;-58
2022/04/18 08:25:51;;;;;;;6.18;2.90;;;;;;;13.36;36.87;100884.72;4003085;29;20065;-58
2022/04/18 08:28:11;;;;;;;6.90;4.10;;;;;;;13.50;36.33;100892.69;4036445;29;20113;-59
2022/04/18 08:30:14;;;;;;;6.57;3.50;;;;;;;13.48;35.69;100883.97;4021425;29;20046;-58
2022/04/18 08:32:40;;;;;;;;;;;;;;;13.51;34.24;100880.50;4017930;29;20068;-58
2022/04/18 08:34:44;;;;;;;7.07;3.53;;;;;;;13.47;35.68;100881.34;4047295;29;19923;-59
2022/04/18 08:36:53;;;;;;;7.00;3.80;;;;;;;13.46;36.28;100888.28;4036347;29;20037;-59
2022/04/18 08:38:57;;;;;;;7.23;4.23;;;;;;;13.63;36.22;100882.34;4036609;29;20045;-59
2022/04/18 08:41:31;;;;;;;7.80;4.00;;;;;;;13.85;36.73;100889.47;4021354;29;20054;-59
2022/04/18 08:43:36;;;;;;;6.22;3.35;;;;;;;14.01;33.73;100877.41;4021172;29;20088;-58
2022/04/18 08:45:39;;;;;;;6.28;3.78;;;;;;;13.93;34.11;100874.75;4036487;29;20041;-58
2022/04/18 08:52:46;;;;;;;4.82;3.08;;;;;;;14.17;33.52;100870.53;4036256;29;20053;-59
2022/04/18 08:55:18;;;;;;;6.90;3.63;;;;;;;14.11;34.74;100875.75;4018979;29;20053;-58
2022/04/18 08:57:22;;;;;;;6.22;3.38;;;;;;;14.27;33.41;100866.25;4036091;29;20128;-59
2022/04/18 08:59:26;;;;;;;5.80;3.10;;;;;;;14.41;32.43;100874.16;4020990;29;20049;-58
2022/04/18 09:01:29;;;;;;;5.82;3.05;;;;;;;14.47;32.32;100880.28;4020926;29;20052;-58
2022/04/18 09:03:45;;;;;;;5.95;3.15;;;;;;;14.56;32.02;100874.22;4032329;29;20345;-58
2022/04/18 09:05:49;;;;;;;5.55;3.22;;;;;;;14.62;31.11;100871.66;4048469;29;20050;-59
2022/04/18 09:08:00;;;;;;;6.38;3.60;;;;;;;14.68;31.09;100872.56;4007205;29;20050;-59
2022/04/18 09:10:08;;;;;;;5.80;3.08;;;;;;;14.58;31.96;100872.47;4032088;29;20356;-59
2022/04/18 09:12:18;;;;;;;6.75;3.25;;;;;;;14.60;30.93;100870.78;4051747;29;20135;-58
2022/04/18 09:14:37;;;;;;;4.10;2.60;;;;;;;14.49;32.27;100867.22;4036222;29;20127;-58
2022/04/18 09:16:41;;;;;;;5.68;3.25;;;;;;;14.69;31.57;100869.06;4035789;29;20120;-58
2022/04/18 09:19:05;;;;;;;5.03;3.38;;;;;;;14.92;31.43;100869.16;4035619;29;20052;-58
2022/04/18 09:21:07;;;;;;;9.30;3.08;;;;;;;15.11;31.17;100868.34;4036105;29;20053;-58
2022/04/18 09:23:22;;;;;;;5.65;3.30;;;;;;;15.04;31.03;100861.34;4036094;29;20052;-58
2022/04/18 09:25:26;;;;;;;4.75;3.25;;;;;;;15.22;30.86;100859.63;4036177;29;20077;-58
2022/04/18 09:27:31;;;;;;;7.78;3.53;;;;;;;15.29;30.93;100864.88;4020004;29;20098;-58
2022/04/18 09:30:02;;;;;;;6.95;2.95;;;;;;;15.45;30.81;100859.63;4035923;29;20052;-58
2022/04/18 09:32:09;;;;;;;5.63;3.58;;;;;;;15.36;30.39;100856.16;4028667;29;20127;-58
2022/04/18 09:34:25;;;;;;;5.82;3.35;;;;;;;15.43;30.20;100846.53;4037855;29;20048;-58
2022/04/18 09:36:28;;;;;;;7.00;3.17;;;;;;;15.35;30.96;100851.78;4037683;29;20571;-59
2022/04/18 09:38:38;;;;;;;5.70;3.22;;;;;;;15.38;30.53;100850.91;4022217;29;20132;-58
2022/04/18 09:41:11;;;;;;;5.43;3.10;;;;;;;15.60;31.11;100843.06;4028192;29;20051;-58
2022/04/18 09:43:16;;;;;;;5.43;3.05;;;;;;;15.69;29.91;100840.44;4048142;29;20056;-58
2022/04/18 09:45:21;;;;;;;4.55;2.67;;;;;;;15.69;31.45;100845.66;4010061;29;20053;-58
2022/04/18 09:47:25;;;;;;;5.25;2.67;;;;;;;15.74;30.78;100837.78;4032236;29;20040;-58
2022/04/18 09:49:36;;;;;;;6.35;3.83;;;;;;;15.85;30.48;100838.69;4035695;29;20097;-58
2022/04/18 09:51:42;;;;;;;5.82;3.10;;;;;;;15.96;29.28;100828.19;4035754;29;20051;-58
2022/04/18 09:53:57;;;;;;;5.72;3.47;;;;;;;16.10;29.72;100825.53;4035608;29;20052;-58
2022/04/18 09:56:00;;;;;;;4.53;3.00;;;;;;;16.06;30.34;100832.53;4035051;29;20069;-58
2022/04/18 09:58:03;;;;;;;4.07;2.78;;;;;;;15.84;29.57;100829.06;4036484;29;20047;-58
2022/04/18 10:00:28;;;;;;;6.85;3.30;;;;;;;15.93;30.32;100821.22;4036898;29;20045;-58
2022/04/18 10:02:33;;;;;;;6.68;3.58;;;;;;;16.16;29.58;100820.25;4036752;29;20057;-58
2022/04/18 10:04:36;;;;;;;4.75;2.65;;;;;;;16.05;30.55;100813.31;4036417;29;20072;-58
2022/04/18 10:06:41;;;;;;;5.00;2.65;;;;;;;16.18;30.16;100810.66;4036391;29;20060;-59
2022/04/18 10:08:44;;;;;;;4.60;2.67;;;;;;;16.29;31.09;100815.84;4036865;29;20049;-58
2022/04/18 10:10:48;;;;;;;6.45;3.05;;;;;;;16.38;29.87;100808.84;4035285;29;20041;-58
2022/04/18 10:12:51;;;;;;;6.28;3.35;;;;;;;16.72;28.78;100800.78;4021405;29;20471;-58
2022/04/18 10:14:55;;;;;;;5.97;2.58;;;;;;;16.65;28.74;100806.09;4021316;29;20065;-58